PWSweather.com
Personal Weather Stations
Station Observations
KMIEASTT1
Tawas Bay, East Tawas, MI 48730

Tawas BayEast Tawas, MI 48730

Lat: 44.28, Lon: -83.48

Elevation: 600

Station Type: Davis VantagePro

http://www.tawasbayweather.com

High Low Average
Temperature 35.7°F2.1°C 31.5°F-0.3°C 33.3°F0.7°C
Dew Point 29.9°F-1.2°C 26.3°F-3.2°C 28.0°F-2.2°C
Winds 8.0 mph 12.9 kmh Calm Calm 2.0 mph WNW3.2 kmh WNW
Wind Gusts 9.0 mph14.5 kmh 1.0 mph1.6 kmh 4.0 mph6.4 kmh
Humidity 90% 72% 81%
Pressure 30.38 in1028.8 mb 30.18 in1022.0 mb -
Precipitation 0.00 in0.0 mm - -
Hour Temp Dew Point Humidity Winds Wind Gusts Pressure Precip Precip Rate Daily Precip Total
12:02 AM 34.5°F1.4°C 27.7°F-2.4°C 76% Calm Calm 2.0 mph3.2 kmh 30.18 in1022.0 mb 0.00 in0.0 mm 0.00 in/hr0.0 mm/hr 0.00 in0.0 mm
12:15 AM 34.3°F1.3°C 27.5°F-2.5°C 76% 1.0 mph N1.6 kmh N 1.0 mph1.6 kmh 30.18 in1022.0 mb 0.00 in0.0 mm 0.00 in/hr0.0 mm/hr 0.00 in0.0 mm
12:31 AM 34.2°F1.2°C 27.8°F-2.3°C 77% Calm Calm 1.0 mph1.6 kmh 30.19 in1022.4 mb 0.00 in0.0 mm 0.00 in/hr0.0 mm/hr 0.00 in0.0 mm
12:46 AM 34.0°F1.1°C 27.6°F-2.4°C 77% 2.0 mph N3.2 kmh N 2.0 mph3.2 kmh 30.20 in1022.7 mb 0.00 in0.0 mm 0.00 in/hr0.0 mm/hr 0.00 in0.0 mm
01:01 AM 34.1°F1.2°C 28.0°F-2.2°C 78% Calm Calm 2.0 mph3.2 kmh 30.20 in1022.7 mb 0.00 in0.0 mm 0.00 in/hr0.0 mm/hr 0.00 in0.0 mm
01:16 AM 33.9°F1.1°C 27.8°F-2.3°C 78% 2.0 mph NNW3.2 kmh NNW 2.0 mph3.2 kmh 30.20 in1022.7 mb 0.00 in0.0 mm 0.00 in/hr0.0 mm/hr 0.00 in0.0 mm
01:31 AM 33.6°F0.9°C 27.8°F-2.3°C 79% 1.0 mph NNW1.6 kmh NNW 3.0 mph4.8 kmh 30.20 in1022.7 mb 0.00 in0.0 mm 0.00 in/hr0.0 mm/hr 0.00 in0.0 mm
01:46 AM 33.3°F0.7°C 27.8°F-2.3°C 80% 1.0 mph NNW1.6 kmh NNW 2.0 mph3.2 kmh 30.20 in1022.7 mb 0.00 in0.0 mm 0.00 in/hr0.0 mm/hr 0.00 in0.0 mm
02:16 AM 32.7°F0.4°C 27.5°F-2.5°C 81% 2.0 mph NW3.2 kmh NW 2.0 mph3.2 kmh 30.20 in1022.7 mb 0.00 in0.0 mm 0.00 in/hr0.0 mm/hr 0.00 in0.0 mm
02:30 AM 32.7°F0.4°C 27.5°F-2.5°C 81% 3.0 mph N4.8 kmh N 3.0 mph4.8 kmh 30.20 in1022.7 mb 0.00 in0.0 mm 0.00 in/hr0.0 mm/hr 0.00 in0.0 mm
02:46 AM 32.5°F0.3°C 27.6°F-2.4°C 82% Calm Calm 3.0 mph4.8 kmh 30.20 in1022.7 mb 0.00 in0.0 mm 0.00 in/hr0.0 mm/hr 0.00 in0.0 mm
03:02 AM 32.5°F0.3°C 27.6°F-2.4°C 82% 1.0 mph N1.6 kmh N 2.0 mph3.2 kmh 30.20 in1022.7 mb 0.00 in0.0 mm 0.00 in/hr0.0 mm/hr 0.00 in0.0 mm
03:16 AM 32.5°F0.3°C 27.6°F-2.4°C 82% 2.0 mph N3.2 kmh N 2.0 mph3.2 kmh 30.20 in1022.7 mb 0.00 in0.0 mm 0.00 in/hr0.0 mm/hr 0.00 in0.0 mm
03:31 AM 32.3°F0.2°C 27.7°F-2.4°C 83% 1.0 mph N1.6 kmh N 3.0 mph4.8 kmh 30.20 in1022.7 mb 0.00 in0.0 mm 0.00 in/hr0.0 mm/hr 0.00 in0.0 mm
03:46 AM 32.4°F0.2°C 27.8°F-2.3°C 83% Calm Calm 2.0 mph3.2 kmh 30.19 in1022.4 mb 0.00 in0.0 mm 0.00 in/hr0.0 mm/hr 0.00 in0.0 mm
04:01 AM 32.6°F0.3°C 28.0°F-2.2°C 83% 3.0 mph N4.8 kmh N 3.0 mph4.8 kmh 30.19 in1022.4 mb 0.00 in0.0 mm 0.00 in/hr0.0 mm/hr 0.00 in0.0 mm
04:16 AM 32.9°F0.5°C 28.0°F-2.2°C 82% 1.0 mph N1.6 kmh N 2.0 mph3.2 kmh 30.19 in1022.4 mb 0.00 in0.0 mm 0.00 in/hr0.0 mm/hr 0.00 in0.0 mm
04:31 AM 33.1°F0.6°C 28.2°F-2.1°C 82% 1.0 mph N1.6 kmh N 2.0 mph3.2 kmh 30.19 in1022.4 mb 0.00 in0.0 mm 0.00 in/hr0.0 mm/hr 0.00 in0.0 mm
04:46 AM 33.1°F0.6°C 28.2°F-2.1°C 82% Calm Calm 1.0 mph1.6 kmh 30.20 in1022.7 mb 0.00 in0.0 mm 0.00 in/hr0.0 mm/hr 0.00 in0.0 mm
05:00 AM 32.9°F0.5°C 28.0°F-2.2°C 82% 1.0 mph N1.6 kmh N 2.0 mph3.2 kmh 30.20 in1022.7 mb 0.00 in0.0 mm 0.00 in/hr0.0 mm/hr 0.00 in0.0 mm
05:15 AM 32.3°F0.2°C 27.7°F-2.4°C 83% 1.0 mph N1.6 kmh N 2.0 mph3.2 kmh 30.21 in1023.0 mb 0.00 in0.0 mm 0.00 in/hr0.0 mm/hr 0.00 in0.0 mm
05:31 AM 32.1°F0.1°C 27.8°F-2.3°C 84% Calm Calm 2.0 mph3.2 kmh 30.22 in1023.4 mb 0.00 in0.0 mm 0.00 in/hr0.0 mm/hr 0.00 in0.0 mm
05:46 AM 32.2°F0.1°C 27.9°F-2.3°C 84% Calm Calm 2.0 mph3.2 kmh 30.22 in1023.4 mb 0.00 in0.0 mm 0.00 in/hr0.0 mm/hr 0.00 in0.0 mm
06:02 AM 32.5°F0.3°C 27.9°F-2.3°C 83% 1.0 mph N1.6 kmh N 2.0 mph3.2 kmh 30.22 in1023.4 mb 0.00 in0.0 mm 0.00 in/hr0.0 mm/hr 0.00 in0.0 mm
06:16 AM 32.2°F0.1°C 27.9°F-2.3°C 84% Calm Calm 1.0 mph1.6 kmh 30.22 in1023.4 mb 0.00 in0.0 mm 0.00 in/hr0.0 mm/hr 0.00 in0.0 mm
06:31 AM 32.2°F0.1°C 27.9°F-2.3°C 84% 1.0 mph N1.6 kmh N 2.0 mph3.2 kmh 30.22 in1023.4 mb 0.00 in0.0 mm 0.00 in/hr0.0 mm/hr 0.00 in0.0 mm
06:46 AM 32.1°F0.1°C 27.8°F-2.3°C 84% 1.0 mph N1.6 kmh N 2.0 mph3.2 kmh 30.23 in1023.7 mb 0.00 in0.0 mm 0.00 in/hr0.0 mm/hr 0.00 in0.0 mm
07:02 AM 31.7°F-0.2°C 27.7°F-2.4°C 85% 1.0 mph NNW1.6 kmh NNW 1.0 mph1.6 kmh 30.23 in1023.7 mb 0.00 in0.0 mm 0.00 in/hr0.0 mm/hr 0.00 in0.0 mm
07:16 AM 31.6°F-0.2°C 27.6°F-2.4°C 85% 1.0 mph NNW1.6 kmh NNW 2.0 mph3.2 kmh 30.23 in1023.7 mb 0.00 in0.0 mm 0.00 in/hr0.0 mm/hr 0.00 in0.0 mm
07:30 AM 31.5°F-0.3°C 27.5°F-2.5°C 85% 2.0 mph NW3.2 kmh NW 3.0 mph4.8 kmh 30.24 in1024.0 mb 0.00 in0.0 mm 0.00 in/hr0.0 mm/hr 0.00 in0.0 mm
07:46 AM 31.5°F-0.3°C 27.5°F-2.5°C 85% 1.0 mph NW1.6 kmh NW 2.0 mph3.2 kmh 30.25 in1024.4 mb 0.00 in0.0 mm 0.00 in/hr0.0 mm/hr 0.00 in0.0 mm
08:02 AM 31.6°F-0.2°C 27.6°F-2.4°C 85% Calm Calm 2.0 mph3.2 kmh 30.25 in1024.4 mb 0.00 in0.0 mm 0.00 in/hr0.0 mm/hr 0.00 in0.0 mm
08:16 AM 31.9°F-0.1°C 27.9°F-2.3°C 85% Calm Calm 2.0 mph3.2 kmh 30.25 in1024.4 mb 0.00 in0.0 mm 0.00 in/hr0.0 mm/hr 0.00 in0.0 mm
08:31 AM 32.2°F0.1°C 27.9°F-2.3°C 84% 1.0 mph NNW1.6 kmh NNW 3.0 mph4.8 kmh 30.25 in1024.4 mb 0.00 in0.0 mm 0.00 in/hr0.0 mm/hr 0.00 in0.0 mm
08:46 AM 32.3°F0.2°C 28.0°F-2.2°C 84% 1.0 mph NNW1.6 kmh NNW 2.0 mph3.2 kmh 30.26 in1024.7 mb 0.00 in0.0 mm 0.00 in/hr0.0 mm/hr 0.00 in0.0 mm
09:02 AM 32.4°F0.2°C 28.1°F-2.2°C 84% 2.0 mph NW3.2 kmh NW 3.0 mph4.8 kmh 30.27 in1025.1 mb 0.00 in0.0 mm 0.00 in/hr0.0 mm/hr 0.00 in0.0 mm
09:16 AM 32.4°F0.2°C 28.1°F-2.2°C 84% Calm Calm 2.0 mph3.2 kmh 30.27 in1025.1 mb 0.00 in0.0 mm 0.00 in/hr0.0 mm/hr 0.00 in0.0 mm
09:31 AM 32.8°F0.4°C 27.9°F-2.3°C 82% 2.0 mph NW3.2 kmh NW 3.0 mph4.8 kmh 30.27 in1025.1 mb 0.00 in0.0 mm 0.00 in/hr0.0 mm/hr 0.00 in0.0 mm
09:46 AM 33.0°F0.6°C 27.8°F-2.3°C 81% 2.0 mph NNW3.2 kmh NNW 4.0 mph6.4 kmh 30.27 in1025.1 mb 0.00 in0.0 mm 0.00 in/hr0.0 mm/hr 0.00 in0.0 mm
10:01 AM 33.3°F0.7°C 28.1°F-2.2°C 81% 1.0 mph N1.6 kmh N 2.0 mph3.2 kmh 30.28 in1025.4 mb 0.00 in0.0 mm 0.00 in/hr0.0 mm/hr 0.00 in0.0 mm
10:16 AM 33.5°F0.8°C 27.7°F-2.4°C 79% 2.0 mph N3.2 kmh N 4.0 mph6.4 kmh 30.28 in1025.4 mb 0.00 in0.0 mm 0.00 in/hr0.0 mm/hr 0.00 in0.0 mm
10:30 AM 33.8°F1.0°C 27.1°F-2.7°C 76% Calm Calm 2.0 mph3.2 kmh 30.29 in1025.7 mb 0.00 in0.0 mm 0.00 in/hr0.0 mm/hr 0.00 in0.0 mm
10:46 AM 33.9°F1.1°C 26.8°F-2.9°C 75% Calm Calm 2.0 mph3.2 kmh 30.29 in1025.7 mb 0.00 in0.0 mm 0.00 in/hr0.0 mm/hr 0.00 in0.0 mm
11:02 AM 34.1°F1.2°C 26.7°F-2.9°C 74% Calm Calm 4.0 mph6.4 kmh 30.30 in1026.1 mb 0.00 in0.0 mm 0.00 in/hr0.0 mm/hr 0.00 in0.0 mm
11:17 AM 34.4°F1.3°C 26.3°F-3.2°C 72% Calm Calm 3.0 mph4.8 kmh 30.31 in1026.4 mb 0.00 in0.0 mm 0.00 in/hr0.0 mm/hr 0.00 in0.0 mm
11:31 AM 34.4°F1.3°C 26.7°F-2.9°C 73% 2.0 mph N3.2 kmh N 5.0 mph8.0 kmh 30.31 in1026.4 mb 0.00 in0.0 mm 0.00 in/hr0.0 mm/hr 0.00 in0.0 mm
11:46 AM 34.7°F1.5°C 27.3°F-2.6°C 74% Calm Calm 1.0 mph1.6 kmh 30.31 in1026.4 mb 0.00 in0.0 mm 0.00 in/hr0.0 mm/hr 0.00 in0.0 mm
12:03 PM 34.6°F1.4°C 26.5°F-3.1°C 72% 1.0 mph NNW1.6 kmh NNW 4.0 mph6.4 kmh 30.31 in1026.4 mb 0.00 in0.0 mm 0.00 in/hr0.0 mm/hr 0.00 in0.0 mm
12:16 PM 34.2°F1.2°C 26.8°F-2.9°C 74% 1.0 mph NW1.6 kmh NW 2.0 mph3.2 kmh 30.31 in1026.4 mb 0.00 in0.0 mm 0.00 in/hr0.0 mm/hr 0.00 in0.0 mm
12:31 PM 35.1°F1.7°C 27.7°F-2.4°C 74% 1.0 mph N1.6 kmh N 2.0 mph3.2 kmh 30.30 in1026.1 mb 0.00 in0.0 mm 0.00 in/hr0.0 mm/hr 0.00 in0.0 mm
12:46 PM 35.7°F2.1°C 27.6°F-2.4°C 72% 1.0 mph N1.6 kmh N 4.0 mph6.4 kmh 30.31 in1026.4 mb 0.00 in0.0 mm 0.00 in/hr0.0 mm/hr 0.00 in0.0 mm
01:00 PM 35.1°F1.7°C 27.3°F-2.6°C 73% 3.0 mph WNW4.8 kmh WNW 3.0 mph4.8 kmh 30.31 in1026.4 mb 0.00 in0.0 mm 0.00 in/hr0.0 mm/hr 0.00 in0.0 mm
01:16 PM 35.1°F1.7°C 27.3°F-2.6°C 73% 3.0 mph NNW4.8 kmh NNW 5.0 mph8.0 kmh 30.31 in1026.4 mb 0.00 in0.0 mm 0.00 in/hr0.0 mm/hr 0.00 in0.0 mm
01:30 PM 35.1°F1.7°C 27.3°F-2.6°C 73% Calm Calm 5.0 mph8.0 kmh 30.31 in1026.4 mb 0.00 in0.0 mm 0.00 in/hr0.0 mm/hr 0.00 in0.0 mm
01:47 PM 35.2°F1.8°C 27.4°F-2.6°C 73% 2.0 mph WNW3.2 kmh WNW 4.0 mph6.4 kmh 30.31 in1026.4 mb 0.00 in0.0 mm 0.00 in/hr0.0 mm/hr 0.00 in0.0 mm
02:00 PM 34.6°F1.4°C 27.2°F-2.7°C 74% 3.0 mph NW4.8 kmh NW 9.0 mph14.5 kmh 30.31 in1026.4 mb 0.00 in0.0 mm 0.00 in/hr0.0 mm/hr 0.00 in0.0 mm
02:16 PM 35.0°F1.7°C 27.6°F-2.4°C 74% 4.0 mph WSW6.4 kmh WSW 6.0 mph9.7 kmh 30.31 in1026.4 mb 0.00 in0.0 mm 0.00 in/hr0.0 mm/hr 0.00 in0.0 mm
02:31 PM 34.5°F1.4°C 27.7°F-2.4°C 76% 3.0 mph W4.8 kmh W 6.0 mph9.7 kmh 30.31 in1026.4 mb 0.00 in0.0 mm 0.00 in/hr0.0 mm/hr 0.00 in0.0 mm
02:46 PM 35.1°F1.7°C 28.3°F-2.1°C 76% 2.0 mph W3.2 kmh W 8.0 mph12.9 kmh 30.31 in1026.4 mb 0.00 in0.0 mm 0.00 in/hr0.0 mm/hr 0.00 in0.0 mm
03:00 PM 35.3°F1.8°C 27.9°F-2.3°C 74% 2.0 mph W3.2 kmh W 6.0 mph9.7 kmh 30.32 in1026.8 mb 0.00 in0.0 mm 0.00 in/hr0.0 mm/hr 0.00 in0.0 mm
03:15 PM 35.3°F1.8°C 28.2°F-2.1°C 75% 5.0 mph WSW8.0 kmh WSW 7.0 mph11.3 kmh 30.32 in1026.8 mb 0.00 in0.0 mm 0.00 in/hr0.0 mm/hr 0.00 in0.0 mm
03:31 PM 34.6°F1.4°C 28.8°F-1.8°C 79% 5.0 mph SSW8.0 kmh SSW 6.0 mph9.7 kmh 30.33 in1027.1 mb 0.00 in0.0 mm 0.00 in/hr0.0 mm/hr 0.00 in0.0 mm
03:46 PM 33.1°F0.6°C 28.8°F-1.8°C 84% 6.0 mph S9.7 kmh S 8.0 mph12.9 kmh 30.33 in1027.1 mb 0.00 in0.0 mm 0.00 in/hr0.0 mm/hr 0.00 in0.0 mm
04:03 PM 32.9°F0.5°C 28.9°F-1.7°C 85% 5.0 mph S8.0 kmh S 7.0 mph11.3 kmh 30.33 in1027.1 mb 0.00 in0.0 mm 0.00 in/hr0.0 mm/hr 0.00 in0.0 mm
04:16 PM 32.7°F0.4°C 29.0°F-1.7°C 86% 8.0 mph S12.9 kmh S 9.0 mph14.5 kmh 30.34 in1027.4 mb 0.00 in0.0 mm 0.00 in/hr0.0 mm/hr 0.00 in0.0 mm
04:31 PM 32.6°F0.3°C 29.5°F-1.4°C 88% 6.0 mph S9.7 kmh S 8.0 mph12.9 kmh 30.34 in1027.4 mb 0.00 in0.0 mm 0.00 in/hr0.0 mm/hr 0.00 in0.0 mm
04:45 PM 32.5°F0.3°C 29.4°F-1.4°C 88% 4.0 mph S6.4 kmh S 6.0 mph9.7 kmh 30.34 in1027.4 mb 0.00 in0.0 mm 0.00 in/hr0.0 mm/hr 0.00 in0.0 mm
05:02 PM 32.5°F0.3°C 29.6°F-1.3°C 89% 4.0 mph SSW6.4 kmh SSW 6.0 mph9.7 kmh 30.35 in1027.8 mb 0.00 in0.0 mm 0.00 in/hr0.0 mm/hr 0.00 in0.0 mm
05:15 PM 32.5°F0.3°C 29.6°F-1.3°C 89% 5.0 mph S8.0 kmh S 7.0 mph11.3 kmh 30.35 in1027.8 mb 0.00 in0.0 mm 0.00 in/hr0.0 mm/hr 0.00 in0.0 mm
05:31 PM 32.5°F0.3°C 29.9°F-1.2°C 90% 5.0 mph S8.0 kmh S 8.0 mph12.9 kmh 30.35 in1027.8 mb 0.00 in0.0 mm 0.00 in/hr0.0 mm/hr 0.00 in0.0 mm
05:46 PM 32.5°F0.3°C 29.6°F-1.3°C 89% 7.0 mph S11.3 kmh S 8.0 mph12.9 kmh 30.36 in1028.1 mb 0.00 in0.0 mm 0.00 in/hr0.0 mm/hr 0.00 in0.0 mm
06:02 PM 32.5°F0.3°C 29.9°F-1.2°C 90% 6.0 mph S9.7 kmh S 8.0 mph12.9 kmh 30.36 in1028.1 mb 0.00 in0.0 mm 0.00 in/hr0.0 mm/hr 0.00 in0.0 mm
06:16 PM 32.5°F0.3°C 29.9°F-1.2°C 90% 6.0 mph S9.7 kmh S 8.0 mph12.9 kmh 30.37 in1028.4 mb 0.00 in0.0 mm 0.00 in/hr0.0 mm/hr 0.00 in0.0 mm
06:31 PM 32.5°F0.3°C 29.9°F-1.2°C 90% 6.0 mph SSW9.7 kmh SSW 7.0 mph11.3 kmh 30.38 in1028.8 mb 0.00 in0.0 mm 0.00 in/hr0.0 mm/hr 0.00 in0.0 mm
06:46 PM 32.5°F0.3°C 29.9°F-1.2°C 90% 5.0 mph SSW8.0 kmh SSW 7.0 mph11.3 kmh 30.38 in1028.8 mb 0.00 in0.0 mm 0.00 in/hr0.0 mm/hr 0.00 in0.0 mm
07:02 PM 32.5°F0.3°C 29.9°F-1.2°C 90% 6.0 mph SSW9.7 kmh SSW 6.0 mph9.7 kmh 30.38 in1028.8 mb 0.00 in0.0 mm 0.00 in/hr0.0 mm/hr 0.00 in0.0 mm
07:16 PM 32.6°F0.3°C 30.0°F-1.1°C 90% 4.0 mph SW6.4 kmh SW 6.0 mph9.7 kmh 30.38 in1028.8 mb 0.00 in0.0 mm 0.00 in/hr0.0 mm/hr 0.00 in0.0 mm
07:31 PM 32.5°F0.3°C 30.2°F-1.0°C 91% 3.0 mph SW4.8 kmh SW 5.0 mph8.0 kmh 30.39 in1029.1 mb 0.00 in0.0 mm 0.00 in/hr0.0 mm/hr 0.00 in0.0 mm
07:46 PM 32.5°F0.3°C 30.4°F-0.9°C 92% 3.0 mph SW4.8 kmh SW 4.0 mph6.4 kmh 30.39 in1029.1 mb 0.00 in0.0 mm 0.00 in/hr0.0 mm/hr 0.00 in0.0 mm
08:02 PM 32.5°F0.3°C 30.4°F-0.9°C 92% 2.0 mph SW3.2 kmh SW 3.0 mph4.8 kmh 30.39 in1029.1 mb 0.00 in0.0 mm 0.00 in/hr0.0 mm/hr 0.00 in0.0 mm
08:16 PM 32.5°F0.3°C 30.7°F-0.7°C 93% 2.0 mph SW3.2 kmh SW 3.0 mph4.8 kmh 30.40 in1029.5 mb 0.00 in0.0 mm 0.00 in/hr0.0 mm/hr 0.00 in0.0 mm
08:31 PM 32.6°F0.3°C 30.8°F-0.7°C 93% 2.0 mph SW3.2 kmh SW 3.0 mph4.8 kmh 30.40 in1029.5 mb 0.00 in0.0 mm 0.00 in/hr0.0 mm/hr 0.00 in0.0 mm
08:46 PM 32.4°F0.2°C 30.6°F-0.8°C 93% 1.0 mph SW1.6 kmh SW 2.0 mph3.2 kmh 30.40 in1029.5 mb 0.00 in0.0 mm 0.00 in/hr0.0 mm/hr 0.00 in0.0 mm
09:00 PM 32.4°F0.2°C 30.6°F-0.8°C 93% Calm Calm 1.0 mph1.6 kmh 30.41 in1029.8 mb 0.00 in0.0 mm 0.00 in/hr0.0 mm/hr 0.00 in0.0 mm
09:16 PM 33.0°F0.6°C 30.9°F-0.6°C 92% 1.0 mph SW1.6 kmh SW 1.0 mph1.6 kmh 30.41 in1029.8 mb 0.00 in0.0 mm 0.00 in/hr0.0 mm/hr 0.00 in0.0 mm
09:31 PM 33.3°F0.7°C 31.0°F-0.6°C 91% 1.0 mph SW1.6 kmh SW 2.0 mph3.2 kmh 30.41 in1029.8 mb 0.00 in0.0 mm 0.00 in/hr0.0 mm/hr 0.00 in0.0 mm
09:46 PM 33.4°F0.8°C 30.8°F-0.7°C 90% Calm Calm -- 30.41 in1029.8 mb 0.00 in0.0 mm 0.00 in/hr0.0 mm/hr 0.00 in0.0 mm
10:01 PM 33.4°F0.8°C 30.8°F-0.7°C 90% 1.0 mph SW1.6 kmh SW 2.0 mph3.2 kmh 30.41 in1029.8 mb 0.00 in0.0 mm 0.00 in/hr0.0 mm/hr 0.00 in0.0 mm
10:16 PM 33.1°F0.6°C 30.5°F-0.8°C 90% 1.0 mph SW1.6 kmh SW 2.0 mph3.2 kmh 30.42 in1030.1 mb 0.00 in0.0 mm 0.00 in/hr0.0 mm/hr 0.00 in0.0 mm
10:31 PM 33.0°F0.6°C 30.1°F-1.1°C 89% 2.0 mph SW3.2 kmh SW 3.0 mph4.8 kmh 30.42 in1030.1 mb 0.00 in0.0 mm 0.00 in/hr0.0 mm/hr 0.00 in0.0 mm
10:46 PM 32.5°F0.3°C 30.2°F-1.0°C 91% 2.0 mph SW3.2 kmh SW 3.0 mph4.8 kmh 30.42 in1030.1 mb 0.00 in0.0 mm 0.00 in/hr0.0 mm/hr 0.00 in0.0 mm
11:02 PM 32.6°F0.3°C 30.3°F-0.9°C 91% Calm Calm -- 30.42 in1030.1 mb 0.00 in0.0 mm 0.00 in/hr0.0 mm/hr 0.00 in0.0 mm
11:15 PM 32.8°F0.4°C 29.9°F-1.2°C 89% Calm Calm 3.0 mph4.8 kmh 30.42 in1030.1 mb 0.00 in0.0 mm 0.00 in/hr0.0 mm/hr 0.00 in0.0 mm
11:30 PM 32.8°F0.4°C 29.6°F-1.3°C 88% 2.0 mph SW3.2 kmh SW 3.0 mph4.8 kmh 30.42 in1030.1 mb 0.00 in0.0 mm 0.00 in/hr0.0 mm/hr 0.00 in0.0 mm
11:46 PM 33.1°F0.6°C 29.4°F-1.4°C 86% 4.0 mph WSW6.4 kmh WSW 6.0 mph9.7 kmh 30.43 in1030.5 mb 0.00 in0.0 mm 0.00 in/hr0.0 mm/hr 0.00 in0.0 mm